Time,TemperatureF,DewpointF,PressureIn,WindDirection,WindDirectionDegrees,WindSpeedMPH,WindSpeedGustMPH,Humidity,HourlyPrecipIn,Conditions,Clouds,dailyrainin,SoftwareType,DateUTC
2013-05-31 00:00:00,59.5,32.5,29.74,SE,135,0.0,0.0,36,0.00,,---,0.00,VWS V14.00,2013-05-31 07:00:00,
2013-05-31 00:30:00,60.1,35.1,29.74,SE,135,0.0,0.0,39,0.00,,---,0.00,VWS V14.00,2013-05-31 07:30:00,
2013-05-31 01:00:00,59.4,35.7,29.74,SE,135,0.0,0.0,41,0.00,,---,0.00,VWS V14.00,2013-05-31 08:00:00,
2013-05-31 01:30:00,62.1,39.4,29.74,SE,135,0.0,0.0,43,0.00,,---,0.00,VWS V14.00,2013-05-31 08:30:00,
2013-05-31 02:00:00,61.8,40.8,29.73,WNW,292,0.0,6.0,46,0.00,,---,0.00,VWS V14.00,2013-05-31 09:00:00,
2013-05-31 02:30:00,60.1,43.9,29.73,WNW,292,0.0,0.0,55,0.00,,---,0.00,VWS V14.00,2013-05-31 09:30:00,
2013-05-31 03:00:00,58.9,44.6,29.73,WNW,292,0.0,0.0,59,0.00,,---,0.00,VWS V14.00,2013-05-31 10:00:00,
2013-05-31 03:30:00,58.7,49.7,29.72,WNW,292,0.0,0.0,72,0.00,,---,0.00,VWS V14.00,2013-05-31 10:30:00,
2013-05-31 04:00:00,58.2,49.2,29.72,WNW,292,0.0,0.0,72,0.00,,---,0.00,VWS V14.00,2013-05-31 11:00:00,
2013-05-31 04:30:00,57.3,49.1,29.72,WNW,292,0.0,0.0,74,0.00,,---,0.00,VWS V14.00,2013-05-31 11:30:00,
2013-05-31 05:00:00,56.9,49.8,29.72,WNW,292,0.0,0.0,77,0.00,,---,0.00,VWS V14.00,2013-05-31 12:00:00,
2013-05-31 05:30:00,57.1,50.0,29.73,WNW,292,0.0,0.0,77,0.00,,---,0.00,VWS V14.00,2013-05-31 12:30:00,
2013-05-31 06:00:00,57.9,50.4,29.74,WNW,292,0.0,0.0,76,0.00,,---,0.00,VWS V14.00,2013-05-31 13:00:00,
2013-05-31 06:30:00,62.1,50.6,29.74,WNW,292,0.0,4.0,66,0.00,,---,0.00,VWS V14.00,2013-05-31 13:30:00,
2013-05-31 06:56:00,62.1,50.6,29.74,WNW,292,0.0,4.0,66,0.00,,---,0.00,VWS V14.00,2013-05-31 13:56:00,
2013-05-31 07:00:00,69.7,55.2,29.75,WNW,297,0.0,5.0,60,0.00,,---,0.00,VWS V14.00,2013-05-31 14:00:00,
2013-05-31 07:01:00,69.7,55.2,29.75,WNW,297,0.0,5.0,60,0.00,,---,0.00,VWS V14.00,2013-05-31 14:01:00,
2013-05-31 07:06:00,69.8,54.8,29.75,WNW,297,0.0,0.0,59,0.00,,---,0.00,VWS V14.00,2013-05-31 14:06:00,
2013-05-31 07:11:00,70.0,54.6,29.75,WNW,297,0.0,4.0,58,0.00,,---,0.00,VWS V14.00,2013-05-31 14:11:00,
2013-05-31 07:16:00,70.3,54.8,29.75,WNW,298,0.0,6.0,58,0.00,,---,0.00,VWS V14.00,2013-05-31 14:16:00,
2013-05-31 07:21:00,70.5,55.0,29.75,WNW,300,0.0,6.0,58,0.00,,---,0.00,VWS V14.00,2013-05-31 14:21:00,
2013-05-31 07:26:00,70.8,54.8,29.75,WNW,300,1.0,6.0,57,0.00,,---,0.00,VWS V14.00,2013-05-31 14:26:00,
2013-05-31 07:30:00,71.1,54.6,29.75,WNW,300,0.0,7.0,56,0.00,,---,0.00,VWS V14.00,2013-05-31 14:30:00,
2013-05-31 07:31:00,71.1,54.6,29.75,WNW,300,0.0,7.0,56,0.00,,---,0.00,VWS V14.00,2013-05-31 14:31:00,
2013-05-31 07:36:00,71.2,54.2,29.75,WNW,292,6.0,7.0,55,0.00,,---,0.00,VWS V14.00,2013-05-31 14:36:00,
2013-05-31 07:41:00,71.4,54.9,29.75,NW,309,0.0,7.0,56,0.00,,---,0.00,VWS V14.00,2013-05-31 14:41:00,
2013-05-31 07:46:00,71.7,53.7,29.75,West,278,0.0,7.0,53,0.00,,---,0.00,VWS V14.00,2013-05-31 14:46:00,
2013-05-31 07:51:00,72.3,53.2,29.75,West,281,4.0,7.0,51,0.00,,---,0.00,VWS V14.00,2013-05-31 14:51:00,
2013-05-31 07:56:00,72.6,54.0,29.75,WNW,287,3.0,8.0,52,0.00,,---,0.00,VWS V14.00,2013-05-31 14:56:00,
2013-05-31 08:00:00,72.6,53.5,29.75,WNW,287,0.0,8.0,51,0.00,,---,0.00,VWS V14.00,2013-05-31 15:00:00,
2013-05-31 08:01:00,72.6,53.5,29.75,WNW,287,0.0,8.0,51,0.00,,---,0.00,VWS V14.00,2013-05-31 15:01:00,
2013-05-31 08:06:00,72.8,52.0,29.76,WNW,287,0.0,6.0,48,0.00,,---,0.00,VWS V14.00,2013-05-31 15:06:00,
2013-05-31 08:11:00,73.1,51.7,29.75,WNW,288,0.0,6.0,47,0.00,,---,0.00,VWS V14.00,2013-05-31 15:11:00,
2013-05-31 08:16:00,73.4,50.8,29.75,WNW,288,0.0,6.0,45,0.00,,---,0.00,VWS V14.00,2013-05-31 15:16:00,
2013-05-31 08:21:00,73.7,49.8,29.76,WNW,288,0.0,6.0,43,0.00,,---,0.00,VWS V14.00,2013-05-31 15:21:00,
2013-05-31 08:26:00,74.1,51.4,29.75,WNW,302,6.0,10.0,45,0.00,,---,0.00,VWS V14.00,2013-05-31 15:26:00,
2013-05-31 08:30:00,74.4,51.1,29.75,West,262,0.0,10.0,44,0.00,,---,0.00,VWS V14.00,2013-05-31 15:30:00,
2013-05-31 08:32:00,74.4,51.1,29.75,West,262,0.0,0.0,44,0.00,,---,0.00,VWS V14.00,2013-05-31 15:32:00,
2013-05-31 08:37:00,74.6,50.7,29.75,SSE,164,0.0,4.0,43,0.00,,---,0.00,VWS V14.00,2013-05-31 15:37:00,
2013-05-31 08:42:00,75.3,51.3,29.75,SSE,166,4.0,4.0,43,0.00,,---,0.00,VWS V14.00,2013-05-31 15:42:00,
2013-05-31 08:47:00,75.9,51.2,29.75,SSE,166,0.0,4.0,42,0.00,,---,0.00,VWS V14.00,2013-05-31 15:47:00,
2013-05-31 08:52:00,76.1,50.7,29.75,SSE,167,0.0,4.0,41,0.00,,---,0.00,VWS V14.00,2013-05-31 15:52:00,
2013-05-31 08:57:00,76.6,49.8,29.75,WNW,296,0.0,5.0,39,0.00,,---,0.00,VWS V14.00,2013-05-31 15:57:00,
2013-05-31 09:00:00,76.3,50.2,29.75,NW,322,0.0,9.0,40,0.00,,---,0.00,VWS V14.00,2013-05-31 16:00:00,
2013-05-31 09:02:00,76.3,50.2,29.75,NW,322,0.0,0.0,40,0.00,,---,0.00,VWS V14.00,2013-05-31 16:02:00,
2013-05-31 09:30:00,78.6,47.1,29.75,SW,223,0.0,6.0,33,0.00,,---,0.00,VWS V14.00,2013-05-31 16:30:00,
2013-05-31 10:00:00,79.4,46.2,29.75,SSW,200,0.0,10.0,31,0.00,,---,0.00,VWS V14.00,2013-05-31 17:00:00,
2013-05-31 10:30:00,80.3,45.2,29.75,WSW,247,0.0,13.0,29,0.00,,---,0.00,VWS V14.00,2013-05-31 17:30:00,
2013-05-31 11:00:00,83.0,43.6,29.74,WNW,296,0.0,10.0,25,0.00,,---,0.00,VWS V14.00,2013-05-31 18:00:00,
2013-05-31 11:30:00,84.2,43.5,29.74,NW,305,0.0,10.0,24,0.00,,---,0.00,VWS V14.00,2013-05-31 18:30:00,
2013-05-31 12:00:00,84.5,41.5,29.72,WSW,251,6.0,15.0,22,0.00,,---,0.00,VWS V14.00,2013-05-31 19:00:00,
2013-05-31 12:30:00,85.8,42.6,29.72,West,267,8.0,12.0,22,0.00,,---,0.00,VWS V14.00,2013-05-31 19:30:00,
2013-05-31 13:00:00,86.4,44.3,29.71,West,271,0.0,13.0,23,0.00,,---,0.00,VWS V14.00,2013-05-31 20:00:00,
2013-05-31 13:30:00,87.1,43.7,29.71,WSW,250,11.0,17.0,22,0.00,,---,0.00,VWS V14.00,2013-05-31 20:30:00,
2013-05-31 14:00:00,87.9,40.5,29.69,WNW,294,6.0,14.0,19,0.00,,---,0.00,VWS V14.00,2013-05-31 21:00:00,
2013-05-31 14:30:00,88.0,37.8,29.68,West,273,13.0,19.0,17,0.00,,---,0.00,VWS V14.00,2013-05-31 21:30:00,
2013-05-31 15:00:00,89.3,33.9,29.66,West,261,13.0,18.0,14,0.00,,---,0.00,VWS V14.00,2013-05-31 22:00:00,
2013-05-31 15:30:00,90.3,34.7,29.66,West,261,14.0,20.0,14,0.00,,---,0.00,VWS V14.00,2013-05-31 22:30:00,
2013-05-31 16:00:00,89.7,37.6,29.66,WSW,255,10.0,18.0,16,0.00,,---,0.00,VWS V14.00,2013-05-31 23:00:00,
2013-05-31 16:30:00,89.1,37.1,29.64,WNW,290,11.0,20.0,16,0.00,,---,0.00,VWS V14.00,2013-05-31 23:30:00,
2013-05-31 17:00:00,88.4,38.1,29.64,West,277,10.0,19.0,17,0.00,,---,0.00,VWS V14.00,2013-06-01 00:00:00,
2013-05-31 17:30:00,87.6,38.9,29.64,West,280,10.0,18.0,18,0.00,,---,0.00,VWS V14.00,2013-06-01 00:30:00,
2013-05-31 18:00:00,87.0,37.0,29.64,West,262,11.0,17.0,17,0.00,,---,0.00,VWS V14.00,2013-06-01 01:00:00,
2013-05-31 18:30:00,85.3,38.4,29.65,West,278,10.0,17.0,19,0.00,,---,0.00,VWS V14.00,2013-06-01 01:30:00,
2013-05-31 19:00:00,83.1,40.4,29.66,West,263,9.0,18.0,22,0.00,,---,0.00,VWS V14.00,2013-06-01 02:00:00,
2013-05-31 19:30:00,80.2,40.2,29.67,West,259,2.0,13.0,24,0.00,,---,0.00,VWS V14.00,2013-06-01 02:30:00,
2013-05-31 20:00:00,77.1,40.6,29.67,West,263,0.0,6.0,27,0.00,,---,0.00,VWS V14.00,2013-06-01 03:00:00,
2013-05-31 20:30:00,72.3,38.3,29.68,West,263,0.0,0.0,29,0.00,,---,0.00,VWS V14.00,2013-06-01 03:30:00,
2013-05-31 21:00:00,69.5,37.6,29.70,West,263,0.0,0.0,31,0.00,,---,0.00,VWS V14.00,2013-06-01 04:00:00,
2013-05-31 21:30:00,64.1,35.9,29.71,West,263,0.0,0.0,35,0.00,,---,0.00,VWS V14.00,2013-06-01 04:30:00,
2013-05-31 22:00:00,60.3,33.9,29.71,West,263,0.0,0.0,37,0.00,,---,0.00,VWS V14.00,2013-06-01 05:00:00,
2013-05-31 22:06:00,60.0,34.3,29.71,West,263,0.0,0.0,38,0.00,,---,0.00,VWS V14.00,2013-06-01 05:06:00,
2013-05-31 22:07:00,60.0,34.3,29.71,West,263,0.0,0.0,38,0.00,,---,0.00,VWS V14.00,2013-06-01 05:07:00,
2013-05-31 22:12:00,60.0,34.3,29.71,West,263,0.0,0.0,38,0.00,,---,0.00,VWS V14.00,2013-06-01 05:12:00,
2013-05-31 22:17:00,60.1,34.4,29.71,West,263,0.0,0.0,38,0.00,,---,0.00,VWS V14.00,2013-06-01 05:17:00,
2013-05-31 22:22:00,60.5,33.4,29.71,West,263,0.0,0.0,36,0.00,,---,0.00,VWS V14.00,2013-06-01 05:22:00,
2013-05-31 22:27:00,60.9,33.1,29.72,West,263,0.0,0.0,35,0.00,,---,0.00,VWS V14.00,2013-06-01 05:27:00,
2013-05-31 22:30:00,60.5,32.7,29.72,West,263,0.0,0.0,35,0.00,,---,0.00,VWS V14.00,2013-06-01 05:30:00,
2013-05-31 22:32:00,60.4,32.7,29.72,West,263,0.0,0.0,35,0.00,,---,0.00,VWS V14.00,2013-06-01 05:32:00,
2013-05-31 22:37:00,59.7,32.0,29.72,West,263,0.0,0.0,35,0.00,,---,0.00,VWS V14.00,2013-06-01 05:37:00,
2013-05-31 23:00:00,59.7,32.0,29.72,North,0,0.0,0.0,35,0.00,,---,0.00,VWS V14.00,2013-06-01 06:00:00,
2013-05-31 23:30:00,59.9,33.6,29.72,North,0,0.0,0.0,37,0.00,,---,0.00,VWS V14.00,2013-06-01 06:30:00,